createdAt,value
2018-06-10T00:01:20.646Z,17.37
2018-06-10T00:03:50.163Z,15.47
2018-06-10T00:06:19.129Z,16.77
2018-06-10T00:08:47.859Z,15.13
2018-06-10T00:11:16.531Z,14.63
2018-06-10T00:13:46.714Z,15.65
2018-06-10T00:16:15.581Z,13.57
2018-06-10T00:18:44.634Z,16.63
2018-06-10T00:21:13.139Z,17.23
2018-06-10T00:23:42.026Z,17.37
2018-06-10T00:26:10.809Z,15.37
2018-06-10T00:28:44.635Z,16.70
2018-06-10T00:31:13.567Z,17.10
2018-06-10T00:33:42.185Z,17.10
2018-06-10T00:36:10.983Z,16.00
2018-06-10T00:38:40.177Z,16.00
2018-06-10T00:41:09.282Z,16.40
2018-06-10T00:43:38.077Z,17.80
2018-06-10T00:46:07.075Z,17.17
2018-06-10T00:48:36.142Z,18.77
2018-06-10T00:51:05.316Z,15.10
2018-06-10T00:53:34.613Z,16.30
2018-06-10T00:56:13.553Z,17.63
2018-06-10T00:58:42.213Z,18.37
2018-06-10T01:01:10.992Z,17.27
2018-06-10T01:03:40.214Z,17.20
2018-06-10T01:06:09.059Z,19.20
2018-06-10T01:08:37.882Z,19.80
2018-06-10T01:11:06.674Z,16.93
2018-06-10T01:13:35.240Z,17.00
2018-06-10T01:16:04.377Z,17.20
2018-06-10T01:18:33.069Z,19.53
2018-06-10T01:21:01.846Z,19.03
2018-06-10T01:23:30.792Z,17.98
2018-06-10T01:25:59.520Z,16.17
2018-06-10T01:28:29.134Z,17.73
2018-06-10T01:30:59.166Z,17.90
2018-06-10T01:33:27.995Z,17.67
2018-06-10T01:35:56.603Z,16.30
2018-06-10T01:38:25.542Z,18.00
2018-06-10T01:40:54.253Z,19.10
2018-06-10T01:43:22.906Z,19.20
2018-06-10T01:45:51.750Z,17.00
2018-06-10T01:48:20.387Z,18.90
2018-06-10T01:50:49.193Z,19.83
2018-06-10T01:53:18.048Z,18.60
2018-06-10T01:55:48.150Z,16.53
2018-06-10T01:58:17.435Z,17.63
2018-06-10T02:00:46.394Z,19.20
2018-06-10T02:03:15.773Z,19.43
2018-06-10T02:05:44.344Z,17.17
2018-06-10T02:08:13.038Z,16.80
2018-06-10T02:10:42.001Z,15.60
2018-06-10T02:13:10.699Z,17.30
2018-06-10T02:15:39.550Z,17.20
2018-06-10T02:18:08.340Z,16.97
2018-06-10T02:20:37.093Z,17.12
2018-06-10T02:23:06.384Z,16.70
2018-06-10T02:25:35.148Z,16.13
2018-06-10T02:28:03.856Z,17.07
2018-06-10T02:30:32.660Z,18.40
2018-06-10T02:33:01.388Z,17.47
2018-06-10T02:35:30.837Z,17.30
2018-06-10T02:37:59.435Z,17.60
2018-06-10T02:40:28.219Z,16.10
2018-06-10T02:42:57.000Z,17.40
2018-06-10T02:45:25.657Z,15.33
2018-06-10T02:47:54.280Z,18.00
2018-06-10T02:50:23.115Z,17.40
2018-06-10T02:52:52.569Z,17.53
2018-06-10T02:55:21.145Z,16.87
2018-06-10T02:57:49.785Z,16.40
2018-06-10T03:00:18.761Z,17.30
2018-06-10T03:02:48.211Z,18.07
2018-06-10T03:05:17.609Z,15.90
2018-06-10T03:07:46.939Z,16.57
2018-06-10T03:10:15.625Z,16.17
2018-06-10T03:12:44.296Z,16.77
2018-06-10T03:15:13.105Z,16.90
2018-06-10T03:17:42.539Z,17.70
2018-06-10T03:20:11.204Z,17.40
2018-06-10T03:22:39.854Z,17.17
2018-06-10T03:25:08.660Z,17.03
2018-06-10T03:27:37.551Z,17.32
2018-06-10T03:30:06.706Z,17.60
2018-06-10T03:32:35.569Z,16.30
2018-06-10T03:35:04.360Z,15.87
2018-06-10T03:37:33.541Z,16.90
2018-06-10T03:40:02.362Z,15.83
2018-06-10T03:42:31.885Z,17.73
2018-06-10T03:45:01.410Z,16.53
2018-06-10T03:47:30.282Z,17.70
2018-06-10T03:49:59.255Z,18.10
2018-06-10T03:52:28.785Z,16.73
2018-06-10T03:54:58.192Z,17.20
2018-06-10T03:57:26.801Z,16.00
2018-06-10T03:59:55.585Z,15.77
2018-06-10T04:02:24.718Z,15.07
2018-06-10T04:04:54.160Z,15.43
2018-06-10T04:07:24.116Z,15.20
2018-06-10T04:09:53.048Z,13.33
2018-06-10T04:12:21.876Z,15.93
2018-06-10T04:14:50.718Z,13.87
2018-06-10T04:17:19.438Z,15.77
2018-06-10T04:19:48.203Z,15.90
2018-06-10T04:22:17.483Z,14.50
2018-06-10T04:24:46.781Z,14.90
2018-06-10T04:27:15.434Z,15.00
2018-06-10T04:29:44.187Z,14.47
2018-06-10T04:32:13.051Z,13.93
2018-06-10T04:34:41.695Z,14.38
2018-06-10T04:37:10.476Z,15.10
2018-06-10T04:39:39.125Z,14.80
2018-06-10T04:42:08.476Z,14.00
2018-06-10T04:44:37.251Z,14.80
2018-06-10T04:47:05.966Z,13.73
2018-06-10T04:49:34.573Z,13.80
2018-06-10T04:52:03.211Z,13.73
2018-06-10T04:54:32.486Z,12.63
2018-06-10T04:57:01.206Z,13.37
2018-06-10T04:59:30.036Z,14.07
2018-06-10T05:01:58.809Z,14.35
2018-06-10T05:04:28.523Z,14.80
2018-06-10T05:06:57.309Z,14.63
2018-06-10T05:09:25.995Z,16.60
2018-06-10T05:11:55.258Z,15.70
2018-06-10T05:14:23.952Z,16.10
2018-06-10T05:16:52.765Z,16.73
2018-06-10T05:19:21.499Z,16.63
2018-06-10T05:21:50.139Z,15.27
2018-06-10T05:24:18.843Z,14.63
2018-06-10T05:26:47.599Z,14.80
2018-06-10T05:29:16.395Z,14.00
2018-06-10T05:31:45.075Z,14.20
2018-06-10T05:34:14.161Z,13.80
2018-06-10T05:36:43.005Z,13.77
2018-06-10T05:39:12.752Z,15.32
2018-06-10T05:41:41.487Z,14.90
2018-06-10T05:44:10.375Z,12.30
2018-06-10T05:46:39.292Z,11.85
2018-06-10T05:49:08.151Z,11.17
2018-06-10T05:51:36.840Z,12.05
2018-06-10T05:54:06.490Z,11.87
2018-06-10T05:56:35.392Z,12.80
2018-06-10T05:59:04.429Z,12.60
2018-06-10T06:01:33.566Z,14.20
2018-06-10T06:04:02.873Z,11.10
2018-06-10T06:06:32.023Z,11.20
2018-06-10T06:09:00.719Z,11.07
2018-06-10T06:11:29.561Z,11.40
2018-06-10T06:13:58.421Z,10.87
2018-06-10T06:16:27.073Z,11.37
2018-06-10T06:18:55.917Z,10.37
2018-06-10T06:21:25.389Z,11.20
2018-06-10T06:23:54.168Z,9.90
2018-06-10T06:26:22.970Z,11.93
2018-06-10T06:28:51.757Z,10.80
2018-06-10T06:31:20.555Z,11.20
2018-06-10T06:33:49.360Z,10.40
2018-06-10T06:36:18.065Z,9.43
2018-06-10T06:38:46.826Z,9.30
2018-06-10T06:41:15.515Z,10.90
2018-06-10T06:43:44.299Z,10.78
2018-06-10T06:46:13.061Z,8.90
2018-06-10T06:48:42.123Z,10.13
2018-06-10T06:51:10.956Z,9.60
2018-06-10T06:53:39.695Z,8.03
2018-06-10T06:56:08.384Z,8.47
2018-06-10T06:58:37.090Z,9.13
2018-06-10T07:01:06.192Z,9.17
2018-06-10T07:03:34.969Z,7.97
2018-06-10T07:06:03.706Z,8.83
2018-06-10T07:08:32.572Z,9.13
2018-06-10T07:11:01.167Z,8.67
2018-06-10T07:13:30.006Z,8.30
2018-06-10T07:15:58.813Z,8.00
2018-06-10T07:18:27.657Z,8.10
2018-06-10T07:20:56.276Z,8.00
2018-06-10T07:23:25.005Z,8.07
2018-06-10T07:25:54.583Z,8.40
2018-06-10T07:28:23.530Z,8.00
2018-06-10T07:30:52.419Z,6.93
2018-06-10T07:33:21.231Z,7.30
2018-06-10T07:35:51.075Z,7.97
2018-06-10T07:38:19.829Z,7.60
2018-06-10T07:40:48.871Z,8.10
2018-06-10T07:43:18.297Z,6.83
2018-06-10T07:45:47.398Z,6.95
2018-06-10T07:48:16.264Z,6.53
2018-06-10T07:50:45.039Z,6.58
2018-06-10T07:53:13.941Z,6.00
2018-06-10T07:55:43.342Z,6.00
2018-06-10T07:58:12.194Z,6.30
2018-06-10T08:00:41.825Z,6.10
2018-06-10T08:03:10.914Z,5.47
2018-06-10T08:05:39.756Z,5.83
2018-06-10T08:08:08.435Z,5.20
2018-06-10T08:10:37.625Z,5.35
2018-06-10T08:13:06.757Z,5.45
2018-06-10T08:15:35.675Z,5.53
2018-06-10T08:18:04.576Z,5.70
2018-06-10T08:20:33.587Z,5.78
2018-06-10T08:23:02.386Z,5.37
2018-06-10T08:25:31.883Z,5.10
2018-06-10T08:28:00.766Z,3.95
2018-06-10T08:30:29.502Z,5.00
2018-06-10T08:32:58.912Z,5.20
2018-06-10T08:35:27.707Z,5.00
2018-06-10T08:37:56.577Z,5.87
2018-06-10T08:40:25.441Z,5.40
2018-06-10T08:42:54.542Z,5.83
2018-06-10T08:45:24.945Z,5.30
2018-06-10T08:47:53.942Z,6.10
2018-06-10T08:50:22.723Z,7.22
2018-06-10T08:52:51.382Z,7.47
2018-06-10T08:55:20.170Z,6.95
2018-06-10T08:57:49.020Z,7.90
2018-06-10T09:00:17.822Z,7.60
2018-06-10T09:02:46.571Z,7.90
2018-06-10T09:05:15.384Z,8.77
2018-06-10T09:07:44.184Z,7.33
2018-06-10T09:10:13.067Z,6.80
2018-06-10T09:12:42.089Z,6.35
2018-06-10T09:15:13.831Z,5.80
2018-06-10T09:17:42.613Z,5.06
2018-06-10T09:20:11.790Z,4.33
2018-06-10T09:22:40.673Z,3.50
2018-06-10T09:25:09.346Z,3.35
2018-06-10T09:27:38.455Z,3.42
2018-06-10T09:30:07.952Z,2.87
2018-06-10T09:32:37.033Z,2.60
2018-06-10T09:35:06.098Z,2.30
2018-06-10T09:37:35.761Z,2.58
2018-06-10T09:40:04.785Z,2.45
2018-06-10T09:42:33.490Z,3.40
2018-06-10T09:45:02.282Z,4.42
2018-06-10T09:47:31.263Z,4.55
2018-06-10T09:50:00.019Z,5.42
2018-06-10T09:52:28.978Z,4.35
2018-06-10T09:54:58.058Z,4.42
2018-06-10T09:57:26.758Z,3.77
2018-06-10T09:59:55.556Z,2.90
2018-06-10T10:02:24.948Z,3.83
2018-06-10T10:04:53.988Z,2.80
2018-06-10T10:07:23.382Z,2.87
2018-06-10T10:09:52.818Z,2.50
2018-06-10T10:12:21.782Z,2.77
2018-06-10T10:14:50.833Z,3.55
2018-06-10T10:17:19.749Z,3.33
2018-06-10T10:19:48.463Z,3.22
2018-06-10T10:22:17.899Z,2.42
2018-06-10T10:24:46.741Z,3.17
2018-06-10T10:27:16.244Z,3.80
2018-06-10T10:29:46.347Z,3.93
2018-06-10T10:32:15.439Z,3.72
2018-06-10T10:34:44.588Z,3.72
2018-06-10T10:37:13.400Z,3.10
2018-06-10T10:39:42.305Z,3.60
2018-06-10T10:42:11.367Z,3.47
2018-06-10T10:44:40.267Z,3.50
2018-06-10T10:47:09.203Z,3.90
2018-06-10T10:49:38.037Z,4.20
2018-06-10T10:52:07.413Z,3.98
2018-06-10T10:54:36.586Z,4.20
2018-06-10T10:57:05.647Z,4.70
2018-06-10T10:59:34.553Z,4.47
2018-06-10T11:02:03.321Z,5.17
2018-06-10T11:04:32.339Z,5.00
2018-06-10T11:07:01.522Z,5.30
2018-06-10T11:09:30.620Z,5.57
2018-06-10T11:12:00.117Z,5.67
2018-06-10T11:14:29.243Z,5.10
2018-06-10T11:16:58.388Z,4.90
2018-06-10T11:19:27.833Z,4.83
2018-06-10T11:21:56.861Z,5.37
2018-06-10T11:24:27.833Z,5.90
2018-06-10T11:26:56.765Z,6.77
2018-06-10T11:29:25.743Z,9.57
2018-06-10T11:31:54.883Z,9.30
2018-06-10T11:34:23.946Z,10.23
2018-06-10T11:36:52.967Z,8.87
2018-06-10T11:39:25.827Z,8.60
2018-06-10T11:41:54.599Z,9.13
2018-06-10T11:44:23.484Z,8.73
2018-06-10T11:46:52.103Z,8.67
2018-06-10T11:49:21.106Z,8.03
2018-06-10T11:51:50.446Z,8.00
2018-06-10T11:54:19.423Z,8.03
2018-06-10T11:56:48.250Z,7.83
2018-06-10T11:59:17.287Z,7.57
2018-06-10T12:01:46.149Z,7.90
2018-06-10T12:04:15.069Z,8.27
2018-06-10T12:06:43.888Z,7.53
2018-06-10T12:09:13.096Z,8.00
2018-06-10T12:11:42.466Z,7.80
2018-06-10T12:14:11.297Z,7.97
2018-06-10T12:16:40.086Z,8.30
2018-06-10T12:19:09.111Z,8.03
2018-06-10T12:21:37.968Z,8.07
2018-06-10T12:24:06.688Z,7.70
2018-06-10T12:26:35.662Z,7.53
2018-06-10T12:29:04.493Z,7.10
2018-06-10T12:31:33.169Z,8.20
2018-06-10T12:34:02.062Z,7.40
2018-06-10T12:36:30.898Z,7.27
2018-06-10T12:38:59.656Z,8.10
2018-06-10T12:41:28.312Z,8.03
2018-06-10T12:43:57.052Z,6.90
2018-06-10T12:46:25.834Z,6.93
2018-06-10T12:48:54.911Z,7.23
2018-06-10T12:51:23.632Z,7.00
2018-06-10T12:53:52.238Z,7.10
2018-06-10T12:56:21.044Z,5.95
2018-06-10T12:58:49.857Z,6.77
2018-06-10T13:01:18.886Z,6.47
2018-06-10T13:03:47.840Z,6.40
2018-06-10T13:06:16.605Z,7.33
2018-06-10T13:08:45.376Z,8.73
2018-06-10T13:11:14.143Z,8.13
2018-06-10T13:13:43.188Z,8.57
2018-06-10T13:16:11.988Z,9.00
2018-06-10T13:18:41.243Z,8.13
2018-06-10T13:21:09.969Z,9.37
2018-06-10T13:23:38.697Z,8.70
2018-06-10T13:26:07.929Z,8.57
2018-06-10T13:28:36.869Z,8.50
2018-06-10T13:31:05.710Z,8.10
2018-06-10T13:33:34.634Z,8.30
2018-06-10T13:36:04.092Z,8.20
2018-06-10T13:38:33.154Z,8.60
2018-06-10T13:41:02.607Z,7.73
2018-06-10T13:43:31.540Z,7.67
2018-06-10T13:46:00.117Z,8.20
2018-06-10T13:48:32.340Z,7.13
2018-06-10T13:51:01.503Z,7.27
2018-06-10T13:53:30.060Z,7.70
2018-06-10T13:55:59.029Z,7.97
2018-06-10T13:58:27.851Z,7.70
2018-06-10T14:00:56.735Z,8.10
2018-06-10T14:03:25.584Z,8.23
2018-06-10T14:05:54.415Z,6.90
2018-06-10T14:08:23.238Z,7.63
2018-06-10T14:10:52.419Z,6.83
2018-06-10T14:13:21.294Z,7.50
2018-06-10T14:15:49.990Z,7.00
2018-06-10T14:18:18.995Z,7.77
2018-06-10T14:20:48.150Z,6.70
2018-06-10T14:23:17.590Z,6.90
2018-06-10T14:25:46.590Z,7.13
2018-06-10T14:28:15.608Z,7.23
2018-06-10T14:30:44.490Z,6.90
2018-06-10T14:33:13.437Z,7.70
2018-06-10T14:35:42.474Z,7.80
2018-06-10T14:38:11.357Z,6.80
2018-06-10T14:40:40.172Z,7.50
2018-06-10T14:43:09.054Z,6.93
2018-06-10T14:45:38.798Z,7.23
2018-06-10T14:48:07.630Z,7.60
2018-06-10T14:50:36.519Z,6.90
2018-06-10T14:53:05.365Z,7.78
2018-06-10T14:55:34.364Z,6.40
2018-06-10T14:58:03.450Z,6.60
2018-06-10T15:00:33.405Z,7.07
2018-06-10T15:03:03.141Z,6.90
2018-06-10T15:05:31.893Z,6.90
2018-06-10T15:08:01.540Z,7.17
2018-06-10T15:10:30.833Z,7.00
2018-06-10T15:12:59.804Z,6.70
2018-06-10T15:15:28.581Z,7.10
2018-06-10T15:17:57.438Z,6.60
2018-06-10T15:20:26.484Z,7.30
2018-06-10T15:22:55.843Z,7.27
2018-06-10T15:25:25.089Z,8.33
2018-06-10T15:27:54.383Z,7.03
2018-06-10T15:30:23.675Z,7.03
2018-06-10T15:32:52.825Z,6.90
2018-06-10T15:35:21.555Z,6.93
2018-06-10T15:37:50.294Z,6.40
2018-06-10T15:40:19.349Z,5.67
2018-06-10T15:42:48.639Z,4.80
2018-06-10T15:45:18.044Z,4.10
2018-06-10T15:47:47.303Z,2.60
2018-06-10T15:50:16.320Z,3.05
2018-06-10T15:52:45.159Z,2.87
2018-06-10T15:55:14.770Z,2.73
2018-06-10T15:57:43.636Z,2.50
2018-06-10T16:00:12.494Z,2.10
2018-06-10T16:02:41.476Z,4.00
2018-06-10T16:05:10.336Z,5.27
2018-06-10T16:07:39.229Z,4.60
2018-06-10T16:10:08.220Z,4.03
2018-06-10T16:12:37.067Z,5.63
2018-06-10T16:15:06.712Z,5.70
2018-06-10T16:17:35.694Z,2.93
2018-06-10T16:20:04.784Z,3.70
2018-06-10T16:22:34.353Z,2.70
2018-06-10T16:25:02.975Z,3.00
2018-06-10T16:27:31.699Z,2.50
2018-06-10T16:30:00.849Z,3.37
2018-06-10T16:32:29.825Z,2.17
2018-06-10T16:34:58.795Z,2.40
2018-06-10T16:37:27.635Z,2.70
2018-06-10T16:39:56.845Z,2.87
2018-06-10T16:42:26.055Z,2.60
2018-06-10T16:44:55.012Z,2.40
2018-06-10T16:47:23.765Z,2.70
2018-06-10T16:49:52.784Z,2.25
2018-06-10T16:52:22.089Z,2.63
2018-06-10T16:54:50.808Z,3.17
2018-06-10T16:57:20.465Z,3.02
2018-06-10T16:59:49.607Z,3.10
2018-06-10T17:02:18.816Z,3.90
2018-06-10T17:04:48.185Z,3.60
2018-06-10T17:07:18.164Z,3.50
2018-06-10T17:09:47.464Z,3.50
2018-06-10T17:12:17.082Z,3.47
2018-06-10T17:14:45.981Z,3.50
2018-06-10T17:17:16.129Z,3.30
2018-06-10T17:19:45.264Z,3.33
2018-06-10T17:22:14.280Z,3.23
2018-06-10T17:24:43.478Z,3.30
2018-06-10T17:27:12.208Z,4.13
2018-06-10T17:29:41.199Z,3.67
2018-06-10T17:32:10.044Z,4.63
2018-06-10T17:34:39.055Z,8.13
2018-06-10T17:37:07.934Z,3.60
2018-06-10T17:39:37.151Z,3.37
2018-06-10T17:42:06.374Z,4.20
2018-06-10T17:44:35.590Z,4.30
2018-06-10T17:47:04.736Z,3.85
2018-06-10T17:49:33.754Z,3.70
2018-06-10T17:52:02.610Z,3.47
2018-06-10T17:54:31.537Z,4.40
2018-06-10T17:57:00.675Z,4.47
2018-06-10T17:59:29.592Z,3.90
2018-06-10T18:01:58.409Z,4.20
2018-06-10T18:04:27.474Z,4.80
2018-06-10T18:06:56.985Z,4.80
2018-06-10T18:09:26.060Z,4.07
2018-06-10T18:11:55.150Z,4.90
2018-06-10T18:14:24.060Z,5.10
2018-06-10T18:16:52.840Z,4.60
2018-06-10T18:19:21.918Z,4.73
2018-06-10T18:21:50.695Z,5.53
2018-06-10T18:24:20.551Z,5.47
2018-06-10T18:26:49.440Z,5.43
2018-06-10T18:29:18.691Z,6.00
2018-06-10T18:31:47.866Z,5.20
2018-06-10T18:34:18.581Z,6.03
2018-06-10T18:36:47.464Z,5.70
2018-06-10T18:39:17.509Z,5.83
2018-06-10T18:41:46.570Z,7.50
2018-06-10T18:44:15.605Z,5.73
2018-06-10T18:46:45.279Z,6.93
2018-06-10T18:49:14.420Z,5.83
2018-06-10T18:51:43.498Z,7.33
2018-06-10T18:54:13.055Z,6.77
2018-06-10T18:56:42.093Z,7.27
2018-06-10T18:59:11.307Z,6.67
2018-06-10T19:01:40.479Z,7.50
2018-06-10T19:04:09.669Z,6.85
2018-06-10T19:06:38.960Z,7.27
2018-06-10T19:09:10.263Z,6.20
2018-06-10T19:11:39.413Z,6.27
2018-06-10T19:14:08.632Z,6.93
2018-06-10T19:16:37.662Z,7.50
2018-06-10T19:19:06.662Z,6.43
2018-06-10T19:21:35.460Z,6.67
2018-06-10T19:24:05.411Z,6.70
2018-06-10T19:26:35.242Z,7.40
2018-06-10T19:29:04.214Z,7.63
2018-06-10T19:31:33.278Z,8.03
2018-06-10T19:34:02.083Z,8.60
2018-06-10T19:36:31.133Z,7.40
2018-06-10T19:39:00.068Z,8.50
2018-06-10T19:41:29.177Z,7.50
2018-06-10T19:43:58.266Z,7.03
2018-06-10T19:46:27.508Z,7.03
2018-06-10T19:48:57.526Z,6.57
2018-06-10T19:51:27.036Z,7.13
2018-06-10T19:53:56.130Z,6.43
2018-06-10T19:56:25.545Z,7.20
2018-06-10T19:58:54.590Z,6.60
2018-06-10T20:01:23.937Z,7.70
2018-06-10T20:03:52.680Z,7.33
2018-06-10T20:06:21.497Z,8.00
2018-06-10T20:08:50.519Z,6.37
2018-06-10T20:11:19.756Z,7.77
2018-06-10T20:13:48.791Z,7.70
2018-06-10T20:16:18.364Z,8.10
2018-06-10T20:18:48.352Z,8.07
2018-06-10T20:21:17.565Z,8.53
2018-06-10T20:23:46.433Z,7.17
2018-06-10T20:26:15.491Z,7.10
2018-06-10T20:28:44.352Z,7.07
2018-06-10T20:31:13.482Z,7.53
2018-06-10T20:33:42.590Z,6.77
2018-06-10T20:36:11.959Z,6.53
2018-06-10T20:38:41.046Z,7.50
2018-06-10T20:41:10.275Z,7.10
2018-06-10T20:43:39.422Z,7.00
2018-06-10T20:46:09.015Z,6.97
2018-06-10T20:48:38.025Z,8.67
2018-06-10T20:51:06.793Z,8.37
2018-06-10T20:53:35.675Z,7.97
2018-06-10T20:56:04.560Z,6.73
2018-06-10T20:58:33.561Z,7.10
2018-06-10T21:01:03.087Z,7.40
2018-06-10T21:03:32.416Z,7.67
2018-06-10T21:06:01.499Z,6.63
2018-06-10T21:08:30.751Z,7.10
2018-06-10T21:11:00.407Z,6.80
2018-06-10T21:13:30.163Z,6.57
2018-06-10T21:15:59.066Z,7.07
2018-06-10T21:18:28.059Z,6.95
2018-06-10T21:20:57.071Z,6.30
2018-06-10T21:23:26.516Z,8.20
2018-06-10T21:25:55.385Z,7.10
2018-06-10T21:28:24.286Z,7.00
2018-06-10T21:30:53.717Z,6.60
2018-06-10T21:33:22.942Z,5.80
2018-06-10T21:35:52.160Z,6.67
2018-06-10T21:38:21.096Z,6.60
2018-06-10T21:40:50.706Z,7.33
2018-06-10T21:43:19.626Z,7.20
2018-06-10T21:45:48.317Z,8.18
2018-06-10T21:48:17.306Z,7.50
2018-06-10T21:50:46.714Z,7.20
2018-06-10T21:53:15.947Z,8.07
2018-06-10T21:55:44.614Z,7.10
2018-06-10T21:58:13.698Z,7.40
2018-06-10T22:00:42.690Z,8.03
2018-06-10T22:03:11.468Z,9.00
2018-06-10T22:05:40.311Z,7.20
2018-06-10T22:08:09.261Z,7.23
2018-06-10T22:10:37.971Z,7.60
2018-06-10T22:13:06.859Z,6.67
2018-06-10T22:15:35.611Z,8.70
2018-06-10T22:18:05.141Z,7.00
2018-06-10T22:20:33.826Z,7.93
2018-06-10T22:23:02.699Z,6.07
2018-06-10T22:25:31.553Z,7.55
2018-06-10T22:28:00.138Z,6.83
2018-06-10T22:30:28.948Z,7.55
2018-06-10T22:32:58.606Z,22.80
2018-06-10T22:35:27.874Z,14.53
2018-06-10T22:37:56.637Z,7.13
2018-06-10T22:40:25.386Z,10.10
2018-06-10T22:42:54.451Z,10.40
2018-06-10T22:45:23.307Z,9.03
2018-06-10T22:47:52.005Z,7.33
2018-06-10T22:50:22.216Z,7.10
2018-06-10T22:53:00.548Z,7.70
2018-06-10T22:55:30.572Z,8.40
2018-06-10T22:57:59.777Z,7.83
2018-06-10T23:00:30.098Z,9.00
2018-06-10T23:03:00.815Z,8.10
2018-06-10T23:05:33.337Z,6.30
2018-06-10T23:08:02.571Z,7.77
2018-06-10T23:10:33.628Z,7.53
2018-06-10T23:13:03.231Z,7.17
2018-06-10T23:15:33.600Z,8.43
2018-06-10T23:18:06.211Z,7.80
2018-06-10T23:20:38.165Z,8.50
2018-06-10T23:23:06.919Z,7.35
2018-06-10T23:25:36.276Z,7.27
2018-06-10T23:28:04.972Z,8.43
2018-06-10T23:30:34.020Z,8.17
2018-06-10T23:33:02.691Z,8.17
2018-06-10T23:35:31.480Z,8.45
2018-06-10T23:38:00.561Z,7.27
2018-06-10T23:40:29.797Z,7.70
2018-06-10T23:42:59.191Z,6.40
2018-06-10T23:45:28.441Z,8.03
2018-06-10T23:47:57.235Z,8.47
2018-06-10T23:50:25.815Z,8.07
2018-06-10T23:52:54.634Z,8.73
2018-06-10T23:55:23.370Z,7.40
2018-06-10T23:57:52.441Z,6.70
